createdAt,value
2023-03-07T00:01:26.568Z,44.06
2023-03-07T00:03:55.108Z,43.98
2023-03-07T00:06:25.531Z,43.67
2023-03-07T00:08:56.511Z,43.70
2023-03-07T00:11:25.103Z,43.77
2023-03-07T00:13:54.191Z,43.97
2023-03-07T00:16:24.827Z,43.96
2023-03-07T00:18:53.454Z,43.88
2023-03-07T00:21:24.889Z,43.61
2023-03-07T00:23:54.497Z,43.95
2023-03-07T00:26:25.076Z,43.69
2023-03-07T00:28:55.095Z,44.06
2023-03-07T00:31:24.434Z,44.00
2023-03-07T00:33:53.281Z,43.68
2023-03-07T00:36:23.109Z,43.94
2023-03-07T00:38:53.613Z,43.97
2023-03-07T00:41:24.039Z,43.77
2023-03-07T00:43:52.888Z,43.94
2023-03-07T00:46:24.304Z,43.80
2023-03-07T00:48:53.396Z,43.75
2023-03-07T00:51:23.617Z,43.77
2023-03-07T00:53:53.544Z,43.90
2023-03-07T00:56:24.304Z,43.96
2023-03-07T00:58:53.799Z,43.66
2023-03-07T01:01:24.879Z,43.78
2023-03-07T01:03:54.396Z,43.68
2023-03-07T01:06:26.057Z,43.89
2023-03-07T01:08:58.947Z,43.78
2023-03-07T01:11:27.787Z,43.61
2023-03-07T01:13:57.491Z,43.68
2023-03-07T01:16:28.746Z,43.88
2023-03-07T01:19:00.107Z,43.92
2023-03-07T01:21:30.664Z,44.11
2023-03-07T01:24:00.859Z,44.24
2023-03-07T01:26:31.614Z,43.89
2023-03-07T01:29:02.291Z,44.12
2023-03-07T01:31:32.637Z,43.96
2023-03-07T01:34:02.384Z,43.95
2023-03-07T01:36:33.371Z,43.97
2023-03-07T01:39:07.361Z,44.27
2023-03-07T01:41:37.509Z,44.03
2023-03-07T01:44:16.280Z,43.98
2023-03-07T01:46:53.164Z,44.13
2023-03-07T01:49:27.188Z,43.84
2023-03-07T01:52:04.263Z,43.88
2023-03-07T01:54:38.639Z,43.89
2023-03-07T01:57:07.784Z,43.73
2023-03-07T01:59:41.665Z,44.21
2023-03-07T02:02:14.249Z,43.76
2023-03-07T02:04:46.192Z,43.69
2023-03-07T02:07:15.221Z,43.73
2023-03-07T02:09:47.837Z,43.97
2023-03-07T02:12:16.807Z,43.68
2023-03-07T02:14:47.503Z,43.86
2023-03-07T02:17:15.818Z,44.10
2023-03-07T02:20:01.502Z,44.20
2023-03-07T02:22:30.554Z,44.00
2023-03-07T02:25:04.229Z,44.40
2023-03-07T02:27:37.559Z,44.41
2023-03-07T02:30:07.803Z,44.13
2023-03-07T02:32:36.065Z,44.06
2023-03-07T02:35:12.538Z,44.44
2023-03-07T02:37:42.156Z,44.07
2023-03-07T02:40:14.467Z,44.13
2023-03-07T02:42:45.414Z,44.16
2023-03-07T02:45:16.958Z,44.44
2023-03-07T02:47:46.414Z,44.14
2023-03-07T02:50:16.222Z,44.52
2023-03-07T02:52:44.810Z,44.29
2023-03-07T02:55:13.365Z,44.56
2023-03-07T02:57:43.036Z,44.54
2023-03-07T03:00:13.250Z,44.72
2023-03-07T03:02:41.556Z,44.30
2023-03-07T03:05:10.713Z,44.40
2023-03-07T03:07:39.209Z,44.52
2023-03-07T03:10:09.047Z,44.44
2023-03-07T03:12:37.271Z,44.57
2023-03-07T03:15:08.961Z,44.38
2023-03-07T03:17:37.500Z,44.42
2023-03-07T03:20:08.892Z,44.61
2023-03-07T03:22:37.134Z,44.78
2023-03-07T03:25:06.641Z,44.43
2023-03-07T03:27:35.006Z,44.71
2023-03-07T03:30:04.651Z,44.61
2023-03-07T03:32:34.486Z,44.36
2023-03-07T03:35:02.757Z,44.71
2023-03-07T03:37:31.626Z,44.55
2023-03-07T03:39:59.888Z,44.31
2023-03-07T03:42:28.168Z,44.60
2023-03-07T03:44:56.430Z,44.40
2023-03-07T03:47:24.666Z,44.64
2023-03-07T03:49:54.289Z,44.76
2023-03-07T03:52:23.478Z,44.26
2023-03-07T03:54:51.720Z,44.65
2023-03-07T03:57:20.681Z,44.53
2023-03-07T03:59:49.249Z,44.28
2023-03-07T04:02:17.652Z,44.58
2023-03-07T04:04:46.102Z,44.12
2023-03-07T04:07:15.692Z,44.52
2023-03-07T04:09:44.139Z,44.67
2023-03-07T04:12:12.378Z,44.46
2023-03-07T04:14:40.649Z,44.65
2023-03-07T04:17:08.843Z,44.72
2023-03-07T04:19:37.092Z,44.42
2023-03-07T04:22:05.608Z,44.27
2023-03-07T04:24:35.228Z,44.63
2023-03-07T04:27:03.460Z,44.51
2023-03-07T04:29:31.919Z,44.23
2023-03-07T04:32:00.261Z,44.66
2023-03-07T04:34:28.592Z,44.42
2023-03-07T04:36:56.804Z,44.59
2023-03-07T04:39:25.028Z,44.53
2023-03-07T04:41:54.634Z,44.25
2023-03-07T04:44:22.913Z,44.39
2023-03-07T04:46:51.136Z,44.21
2023-03-07T04:49:19.411Z,44.37
2023-03-07T04:51:47.657Z,44.02
2023-03-07T04:54:15.895Z,44.25
2023-03-07T04:56:44.238Z,44.04
2023-03-07T04:59:13.817Z,44.26
2023-03-07T05:01:42.179Z,43.90
2023-03-07T05:04:10.414Z,44.31
2023-03-07T05:06:38.723Z,44.06
2023-03-07T05:09:07.048Z,43.80
2023-03-07T05:11:35.315Z,44.10
2023-03-07T05:14:03.518Z,44.03
2023-03-07T05:16:33.608Z,43.94
2023-03-07T05:19:02.925Z,44.05
2023-03-07T05:21:32.655Z,44.16
2023-03-07T05:24:00.980Z,44.07
2023-03-07T05:26:29.188Z,44.10
2023-03-07T05:28:57.468Z,44.23
2023-03-07T05:31:26.329Z,44.19
2023-03-07T05:33:56.097Z,44.51
2023-03-07T05:36:24.749Z,44.08
2023-03-07T05:38:53.638Z,44.61
2023-03-07T05:41:21.892Z,44.13
2023-03-07T05:43:50.304Z,44.17
2023-03-07T05:46:18.645Z,44.68
2023-03-07T05:48:46.898Z,44.69
2023-03-07T05:51:16.669Z,44.72
2023-03-07T05:53:46.508Z,44.49
2023-03-07T05:56:15.107Z,44.74
2023-03-07T05:58:43.404Z,44.41
2023-03-07T06:01:11.611Z,44.84
2023-03-07T06:03:39.953Z,44.49
2023-03-07T06:06:09.181Z,44.74
2023-03-07T06:08:38.793Z,44.69
2023-03-07T06:11:07.358Z,45.05
2023-03-07T06:13:35.662Z,44.81
2023-03-07T06:16:04.064Z,44.93
2023-03-07T06:18:32.374Z,45.20
2023-03-07T06:21:03.293Z,45.21
2023-03-07T06:23:34.073Z,45.13
2023-03-07T06:26:04.789Z,45.35
2023-03-07T06:28:33.408Z,45.47
2023-03-07T06:31:02.124Z,45.59
2023-03-07T06:33:30.407Z,45.45
2023-03-07T06:35:58.651Z,45.68
2023-03-07T06:38:27.961Z,45.26
2023-03-07T06:40:59.309Z,45.52
2023-03-07T06:43:29.273Z,45.59
2023-03-07T06:45:57.786Z,45.62
2023-03-07T06:48:26.732Z,45.60
2023-03-07T06:50:54.970Z,45.38
2023-03-07T06:53:23.301Z,45.59
2023-03-07T06:55:52.715Z,45.58
2023-03-07T06:58:20.981Z,45.62
2023-03-07T07:00:50.572Z,45.48
2023-03-07T07:03:21.019Z,45.36
2023-03-07T07:05:49.317Z,45.53
2023-03-07T07:08:17.652Z,45.13
2023-03-07T07:10:46.024Z,45.42
2023-03-07T07:13:15.112Z,45.04
2023-03-07T07:15:43.364Z,45.29
2023-03-07T07:18:14.957Z,44.96
2023-03-07T07:20:43.272Z,45.07
2023-03-07T07:23:11.562Z,44.69
2023-03-07T07:25:40.233Z,44.72
2023-03-07T07:28:08.498Z,44.70
2023-03-07T07:30:36.768Z,44.38
2023-03-07T07:33:05.308Z,44.25
2023-03-07T07:35:35.085Z,44.46
2023-03-07T07:38:03.543Z,44.21
2023-03-07T07:40:31.888Z,44.32
2023-03-07T07:43:00.140Z,44.19
2023-03-07T07:45:28.488Z,43.92
2023-03-07T07:47:56.752Z,44.28
2023-03-07T07:50:25.553Z,43.99
2023-03-07T07:52:56.025Z,44.17
2023-03-07T07:55:25.238Z,44.32
2023-03-07T07:57:53.785Z,44.24
2023-03-07T08:00:22.804Z,44.06
2023-03-07T08:02:51.900Z,44.31
2023-03-07T08:05:21.704Z,44.18
2023-03-07T08:07:50.808Z,43.82
2023-03-07T08:10:21.793Z,43.52
2023-03-07T08:12:52.476Z,43.08
2023-03-07T08:15:22.353Z,43.19
2023-03-07T08:17:51.429Z,42.82
2023-03-07T08:20:22.378Z,42.68
2023-03-07T08:22:52.895Z,42.63
2023-03-07T08:25:25.170Z,42.59
2023-03-07T08:27:55.270Z,42.61
2023-03-07T08:30:24.703Z,42.40
2023-03-07T08:32:54.388Z,41.93
2023-03-07T08:35:23.101Z,41.75
2023-03-07T08:37:56.854Z,41.79
2023-03-07T08:40:27.360Z,41.73
2023-03-07T08:42:56.143Z,41.33
2023-03-07T08:45:24.827Z,41.16
2023-03-07T08:47:54.818Z,40.88
2023-03-07T08:50:24.472Z,41.01
2023-03-07T08:52:52.921Z,40.91
2023-03-07T08:55:21.392Z,41.03
2023-03-07T08:57:51.117Z,41.00
2023-03-07T09:00:20.828Z,40.67
2023-03-07T09:02:49.172Z,40.74
2023-03-07T09:05:17.631Z,40.74
2023-03-07T09:07:45.880Z,40.94
2023-03-07T09:10:14.185Z,40.47
2023-03-07T09:12:42.419Z,40.48
2023-03-07T09:15:12.747Z,40.45
2023-03-07T09:17:41.171Z,40.04
2023-03-07T09:20:11.814Z,40.27
2023-03-07T09:22:40.224Z,40.45
2023-03-07T09:25:09.514Z,40.10
2023-03-07T09:27:37.900Z,40.83
2023-03-07T09:30:08.148Z,40.19
2023-03-07T09:32:38.050Z,40.54
2023-03-07T09:35:07.446Z,39.93
2023-03-07T09:37:35.746Z,39.47
2023-03-07T09:40:07.243Z,39.61
2023-03-07T09:42:46.445Z,39.42
2023-03-07T09:45:34.870Z,38.96
2023-03-07T09:48:47.167Z,38.50
2023-03-07T09:51:20.075Z,37.98
2023-03-07T09:53:53.196Z,38.04
2023-03-07T09:56:26.516Z,37.31
2023-03-07T09:59:08.538Z,37.31
2023-03-07T10:01:43.955Z,37.16
2023-03-07T10:04:23.101Z,37.62
2023-03-07T10:06:58.285Z,37.41
2023-03-07T10:09:27.306Z,37.34
2023-03-07T10:12:28.482Z,37.77
2023-03-07T10:15:20.189Z,38.23
2023-03-07T10:18:09.126Z,37.73
2023-03-07T10:20:47.361Z,37.00
2023-03-07T10:23:32.555Z,36.69
2023-03-07T10:26:09.509Z,36.54
2023-03-07T12:35:05.703Z,30.34
2023-03-07T12:37:43.600Z,29.20
2023-03-07T12:40:21.457Z,29.61
2023-03-07T12:42:58.476Z,29.50
2023-03-07T12:45:29.825Z,28.97
2023-03-07T12:48:07.317Z,28.87
2023-03-07T12:50:46.772Z,28.69
2023-03-07T12:53:24.640Z,28.21
2023-03-07T12:55:58.564Z,27.00
2023-03-07T12:58:38.541Z,25.34
2023-03-07T13:01:15.468Z,26.28
2023-03-07T13:03:52.144Z,26.45
2023-03-07T13:06:23.933Z,25.68
2023-03-07T13:08:55.504Z,25.93
2023-03-07T13:11:27.654Z,25.69
2023-03-07T13:13:59.464Z,26.26
2023-03-07T13:16:43.528Z,26.12
2023-03-07T13:20:04.946Z,26.74
2023-03-07T13:23:14.534Z,26.67
2023-03-07T13:25:58.164Z,26.18
2023-03-07T13:28:51.237Z,25.80
2023-03-07T13:31:43.661Z,25.95
2023-03-07T13:34:51.675Z,26.19
2023-03-07T13:37:54.342Z,26.61
2023-03-07T13:40:58.513Z,25.81
2023-03-07T13:44:01.449Z,26.25
2023-03-07T13:46:58.719Z,25.11
2023-03-07T13:49:44.359Z,25.17
2023-03-07T13:52:39.150Z,25.45
2023-03-07T13:55:25.790Z,25.14
2023-03-07T13:57:59.257Z,25.06
2023-03-07T14:00:39.495Z,24.73
2023-03-07T14:03:27.934Z,24.85
2023-03-07T14:05:59.964Z,24.66
2023-03-07T14:08:35.544Z,25.08
2023-03-07T14:11:04.310Z,24.98
2023-03-07T14:14:16.462Z,25.00
2023-03-07T14:17:13.649Z,24.73
2023-03-07T14:19:56.417Z,25.51
2023-03-07T14:22:55.983Z,25.64
2023-03-07T14:25:26.414Z,25.55
2023-03-07T14:27:58.620Z,25.04
2023-03-07T14:30:31.481Z,24.82
2023-03-07T14:33:00.897Z,24.31
2023-03-07T14:35:42.680Z,24.73
2023-03-07T14:38:21.077Z,25.03
2023-03-07T14:41:22.075Z,25.09
2023-03-07T14:44:03.898Z,25.27
2023-03-07T14:46:43.025Z,25.23
2023-03-07T14:49:24.770Z,25.19
2023-03-07T14:51:53.149Z,25.57
2023-03-07T14:54:27.880Z,25.55
2023-03-07T14:56:56.436Z,25.73
2023-03-07T14:59:29.090Z,25.79
2023-03-07T15:02:00.113Z,25.69
2023-03-07T15:04:30.763Z,25.87
2023-03-07T15:07:01.302Z,26.22
2023-03-07T15:09:30.591Z,25.96
2023-03-07T15:12:06.044Z,26.18
2023-03-07T15:14:46.034Z,26.46
2023-03-07T15:17:20.413Z,26.47
2023-03-07T15:19:51.843Z,26.21
2023-03-07T15:22:25.689Z,26.45
2023-03-07T15:24:54.665Z,26.35
2023-03-07T15:27:26.664Z,26.46
2023-03-07T15:29:56.314Z,26.56
2023-03-07T15:32:36.086Z,27.07
2023-03-07T15:35:17.193Z,26.80
2023-03-07T15:37:56.924Z,26.56
2023-03-07T15:40:30.915Z,26.97
2023-03-07T15:43:15.261Z,27.01
2023-03-07T15:45:45.792Z,27.21
2023-03-07T15:48:28.119Z,27.37
2023-03-07T15:50:58.998Z,27.56
2023-03-07T15:53:31.327Z,27.65
2023-03-07T15:56:02.267Z,27.48
2023-03-07T15:58:33.754Z,28.01
2023-03-07T16:01:19.654Z,28.14
2023-03-07T16:03:54.344Z,28.05
2023-03-07T16:06:38.167Z,28.45
2023-03-07T16:09:07.192Z,28.20
2023-03-07T16:11:38.046Z,28.20
2023-03-07T16:14:06.554Z,28.32
2023-03-07T16:16:34.931Z,28.55
2023-03-07T16:19:04.583Z,28.61
2023-03-07T16:21:32.837Z,28.88
2023-03-07T16:24:01.124Z,29.07
2023-03-07T16:26:29.948Z,29.19
2023-03-07T16:28:58.264Z,29.26
2023-03-07T16:31:26.659Z,29.35
2023-03-07T16:33:55.938Z,29.40
2023-03-07T16:36:25.568Z,29.34
2023-03-07T16:38:53.839Z,29.47
2023-03-07T16:41:23.418Z,29.56
2023-03-07T16:43:55.585Z,29.39
2023-03-07T16:46:25.433Z,29.60
2023-03-07T16:48:53.710Z,29.59
2023-03-07T16:51:26.052Z,29.55
2023-03-07T16:53:56.719Z,29.63
2023-03-07T16:56:32.465Z,29.68
2023-03-07T16:59:01.760Z,29.93
2023-03-07T17:01:30.176Z,30.00
2023-03-07T17:03:58.465Z,30.01
2023-03-07T17:06:38.828Z,30.08
2023-03-07T17:09:09.492Z,30.02
2023-03-07T17:11:39.370Z,30.26
2023-03-07T17:14:10.127Z,30.17
2023-03-07T17:16:44.882Z,30.27
2023-03-07T17:19:28.525Z,30.43
2023-03-07T17:22:01.871Z,30.46
2023-03-07T17:24:31.226Z,30.54
2023-03-07T17:27:03.545Z,30.58
2023-03-07T17:29:37.344Z,30.72
2023-03-07T17:32:06.748Z,30.82
2023-03-07T17:34:37.093Z,30.89
2023-03-07T17:37:08.181Z,31.12
2023-03-07T17:39:36.728Z,31.04
2023-03-07T17:42:05.576Z,31.08
2023-03-07T17:44:34.777Z,31.14
2023-03-07T17:47:03.056Z,31.36
2023-03-07T17:49:35.431Z,31.31
2023-03-07T17:52:06.667Z,31.54
2023-03-07T17:54:35.112Z,31.53
2023-03-07T17:57:04.216Z,31.72
2023-03-07T17:59:33.515Z,31.68
2023-03-07T18:02:02.048Z,31.75
2023-03-07T18:04:31.391Z,31.94
2023-03-07T18:06:59.818Z,32.05
2023-03-07T18:09:29.531Z,32.09
2023-03-07T18:11:58.168Z,32.06
2023-03-07T18:14:26.707Z,31.97
2023-03-07T18:16:55.188Z,32.09
2023-03-07T18:19:27.053Z,32.04
2023-03-07T18:21:56.273Z,32.06
2023-03-07T18:24:29.976Z,32.33
2023-03-07T18:27:00.168Z,32.29
2023-03-07T18:29:29.521Z,32.39
2023-03-07T18:31:57.890Z,32.53
2023-03-07T18:34:26.269Z,32.62
2023-03-07T18:36:54.904Z,32.60
2023-03-07T18:39:24.888Z,32.69
2023-03-07T18:41:54.585Z,32.76
2023-03-07T18:44:22.892Z,32.59
2023-03-07T18:46:51.340Z,32.77
2023-03-07T18:49:19.718Z,32.60
2023-03-07T18:51:48.577Z,32.74
2023-03-07T18:54:16.972Z,32.99
2023-03-07T18:56:47.871Z,32.82
2023-03-07T18:59:18.560Z,33.03
2023-03-07T19:01:50.189Z,33.16
2023-03-07T19:04:19.072Z,33.15
2023-03-07T19:06:48.271Z,33.08
2023-03-07T19:09:18.752Z,33.08
2023-03-07T19:11:47.619Z,33.07
2023-03-07T19:14:17.352Z,33.41
2023-03-07T19:16:46.399Z,33.20
2023-03-07T19:19:14.956Z,33.26
2023-03-07T19:21:43.401Z,33.41
2023-03-07T19:24:13.102Z,33.50
2023-03-07T19:26:42.758Z,33.38
2023-03-07T19:29:12.665Z,33.58
2023-03-07T19:31:43.976Z,33.69
2023-03-07T19:34:13.029Z,33.72
2023-03-07T19:36:42.483Z,33.86
2023-03-07T19:39:15.123Z,33.77
2023-03-07T19:41:45.407Z,33.70
2023-03-07T19:44:13.737Z,34.00
2023-03-07T19:46:46.365Z,34.06
2023-03-07T19:49:15.557Z,34.20
2023-03-07T19:51:44.077Z,34.00
2023-03-07T19:54:15.016Z,34.41
2023-03-07T19:56:45.018Z,34.12
2023-03-07T19:59:14.709Z,34.27
2023-03-07T20:01:44.747Z,34.48
2023-03-07T20:04:13.697Z,34.39
2023-03-07T20:06:43.366Z,34.53
2023-03-07T20:09:13.068Z,34.16
2023-03-07T20:11:43.378Z,34.24
2023-03-07T20:14:13.253Z,34.34
2023-03-07T20:16:43.500Z,34.42
2023-03-07T20:19:11.933Z,34.66
2023-03-07T20:21:42.400Z,34.56
2023-03-07T20:24:10.902Z,34.84
2023-03-07T20:26:40.742Z,35.01
2023-03-07T20:29:10.819Z,34.87
2023-03-07T20:31:40.310Z,34.91
2023-03-07T20:34:10.125Z,35.17
2023-03-07T20:36:39.742Z,35.40
2023-03-07T20:39:14.343Z,34.87
2023-03-07T20:41:44.074Z,34.98
2023-03-07T20:44:15.186Z,35.19
2023-03-07T20:46:44.324Z,35.31
2023-03-07T20:49:16.340Z,35.55
2023-03-07T20:51:44.896Z,35.45
2023-03-07T20:54:15.600Z,35.91
2023-03-07T20:56:45.634Z,35.62
2023-03-07T20:59:16.434Z,35.62
2023-03-07T21:01:45.378Z,35.58
2023-03-07T21:04:18.472Z,36.06
2023-03-07T21:06:48.586Z,35.85
2023-03-07T21:09:18.888Z,36.17
2023-03-07T21:11:49.121Z,36.09
2023-03-07T21:14:19.343Z,36.19
2023-03-07T21:16:47.857Z,36.50
2023-03-07T21:19:17.581Z,36.17
2023-03-07T21:21:46.249Z,37.49
2023-03-07T21:24:15.608Z,36.52
2023-03-07T21:26:44.145Z,36.68
2023-03-07T21:29:13.908Z,36.56
2023-03-07T21:31:42.343Z,36.60
2023-03-07T21:34:15.166Z,36.57
2023-03-07T21:36:46.038Z,36.45
2023-03-07T21:39:14.447Z,36.63
2023-03-07T21:41:42.739Z,36.46
2023-03-07T21:44:11.655Z,36.54
2023-03-07T21:46:39.941Z,36.47
2023-03-07T21:49:08.496Z,36.70
2023-03-07T21:51:36.732Z,36.66
2023-03-07T21:54:06.634Z,36.57
2023-03-07T21:56:34.940Z,36.46
2023-03-07T21:59:03.265Z,36.66
2023-03-07T22:01:31.625Z,36.39
2023-03-07T22:04:01.094Z,36.70
2023-03-07T22:06:29.924Z,36.51
2023-03-07T22:08:59.625Z,36.54
2023-03-07T22:11:29.264Z,36.42
2023-03-07T22:13:57.578Z,36.76
2023-03-07T22:16:25.942Z,36.78
2023-03-07T22:18:56.323Z,36.81
2023-03-07T22:21:26.608Z,36.63
2023-03-07T22:23:57.688Z,36.68
2023-03-07T22:26:29.062Z,36.82
2023-03-07T22:28:57.573Z,36.79
2023-03-07T22:31:26.871Z,37.18
2023-03-07T22:33:55.286Z,36.85
2023-03-07T22:36:23.555Z,37.01
2023-03-07T22:38:56.270Z,37.02
2023-03-07T22:41:26.501Z,36.84
2023-03-07T22:43:56.204Z,36.75
2023-03-07T22:46:24.788Z,36.63
2023-03-07T22:48:54.752Z,36.82
2023-03-07T22:51:24.761Z,36.86
2023-03-07T22:53:53.604Z,36.65
2023-03-07T22:56:24.291Z,36.70
2023-03-07T22:58:52.767Z,36.47
2023-03-07T23:01:25.099Z,36.56
2023-03-07T23:03:55.550Z,36.56
2023-03-07T23:06:27.018Z,36.31
2023-03-07T23:08:55.607Z,36.58
2023-03-07T23:11:25.829Z,36.39
2023-03-07T23:13:54.755Z,36.23
2023-03-07T23:16:26.763Z,36.29
2023-03-07T23:18:58.334Z,36.58
2023-03-07T23:21:30.068Z,36.37
2023-03-07T23:23:59.427Z,36.50
2023-03-07T23:26:30.125Z,36.74
2023-03-07T23:28:58.636Z,36.66
2023-03-07T23:31:30.160Z,36.37
2023-03-07T23:34:00.887Z,36.67
2023-03-07T23:36:31.281Z,36.56
2023-03-07T23:39:00.868Z,36.51
2023-03-07T23:41:29.538Z,36.67
2023-03-07T23:44:00.208Z,36.43
2023-03-07T23:46:30.857Z,36.47
2023-03-07T23:48:59.730Z,36.70
2023-03-07T23:51:28.134Z,36.47
2023-03-07T23:53:56.528Z,36.75
2023-03-07T23:56:24.796Z,36.68
2023-03-07T23:58:53.817Z,36.58
